sensor_id;sensor_type;location;lat;lon;timestamp;pressure;altitude;pressure_sealevel;temperature;humidity
59757;BME280;45631;51.962;5.974;2023-10-31T00:00:46;99306.72;;;10.24;100.00
59757;BME280;45631;51.962;5.974;2023-10-31T00:03:14;99315.56;;;10.23;100.00
59757;BME280;45631;51.962;5.974;2023-10-31T00:05:43;99314.72;;;10.13;100.00
59757;BME280;45631;51.962;5.974;2023-10-31T00:08:12;99326.06;;;10.13;100.00
59757;BME280;45631;51.962;5.974;2023-10-31T00:10:40;99329.97;;;9.88;100.00
59757;BME280;45631;51.962;5.974;2023-10-31T00:13:11;99341.66;;;9.74;100.00
59757;BME280;45631;51.962;5.974;2023-10-31T00:15:41;99338.66;;;9.79;100.00
59757;BME280;45631;51.962;5.974;2023-10-31T00:18:10;99351.06;;;9.77;100.00
59757;BME280;45631;51.962;5.974;2023-10-31T00:20:38;99355.75;;;9.73;100.00
59757;BME280;45631;51.962;5.974;2023-10-31T00:23:06;99358.06;;;9.67;100.00
59757;BME280;45631;51.962;5.974;2023-10-31T00:25:34;99369.28;;;9.69;100.00
59757;BME280;45631;51.962;5.974;2023-10-31T00:28:03;99372.84;;;9.68;100.00
59757;BME280;45631;51.962;5.974;2023-10-31T00:30:34;99366.50;;;9.70;100.00
59757;BME280;45631;51.962;5.974;2023-10-31T00:33:06;99374.06;;;9.63;100.00
59757;BME280;45631;51.962;5.974;2023-10-31T00:35:34;99379.19;;;9.65;100.00
59757;BME280;45631;51.962;5.974;2023-10-31T00:38:32;99387.91;;;9.66;100.00
59757;BME280;45631;51.962;5.974;2023-10-31T00:41:26;99389.69;;;9.65;100.00
59757;BME280;45631;51.962;5.974;2023-10-31T00:43:54;99394.13;;;9.64;100.00
59757;BME280;45631;51.962;5.974;2023-10-31T00:46:22;99393.31;;;9.64;100.00
59757;BME280;45631;51.962;5.974;2023-10-31T00:48:52;99399.38;;;9.64;100.00
59757;BME280;45631;51.962;5.974;2023-10-31T00:51:20;99404.13;;;9.71;100.00
59757;BME280;45631;51.962;5.974;2023-10-31T00:53:49;99410.97;;;9.62;100.00
59757;BME280;45631;51.962;5.974;2023-10-31T00:56:17;99411.91;;;9.61;100.00
59757;BME280;45631;51.962;5.974;2023-10-31T00:58:45;99420.31;;;9.55;100.00
59757;BME280;45631;51.962;5.974;2023-10-31T01:01:14;99426.78;;;9.51;100.00
59757;BME280;45631;51.962;5.974;2023-10-31T01:03:42;99426.06;;;9.48;100.00
59757;BME280;45631;51.962;5.974;2023-10-31T01:06:11;99435.75;;;9.48;100.00
59757;BME280;45631;51.962;5.974;2023-10-31T01:08:42;99442.13;;;9.55;100.00
59757;BME280;45631;51.962;5.974;2023-10-31T01:11:10;99446.81;;;9.52;100.00
59757;BME280;45631;51.962;5.974;2023-10-31T01:13:39;99443.63;;;9.48;100.00
59757;BME280;45631;51.962;5.974;2023-10-31T01:16:07;99451.22;;;9.51;100.00
59757;BME280;45631;51.962;5.974;2023-10-31T01:18:35;99452.19;;;9.50;100.00
59757;BME280;45631;51.962;5.974;2023-10-31T01:21:05;99457.69;;;9.47;100.00
59757;BME280;45631;51.962;5.974;2023-10-31T01:23:35;99467.22;;;9.48;100.00
59757;BME280;45631;51.962;5.974;2023-10-31T01:26:03;99471.97;;;9.54;100.00
59757;BME280;45631;51.962;5.974;2023-10-31T01:28:31;99479.13;;;9.52;100.00
59757;BME280;45631;51.962;5.974;2023-10-31T01:31:00;99481.16;;;9.48;100.00
59757;BME280;45631;51.962;5.974;2023-10-31T01:33:29;99472.47;;;9.48;100.00
59757;BME280;45631;51.962;5.974;2023-10-31T01:35:57;99488.34;;;9.46;100.00
59757;BME280;45631;51.962;5.974;2023-10-31T01:38:25;99490.84;;;9.48;100.00
59757;BME280;45631;51.962;5.974;2023-10-31T01:40:55;99490.03;;;9.47;100.00
59757;BME280;45631;51.962;5.974;2023-10-31T01:43:30;99493.22;;;9.51;100.00
59757;BME280;45631;51.962;5.974;2023-10-31T01:45:58;99499.06;;;9.55;100.00
59757;BME280;45631;51.962;5.974;2023-10-31T01:48:30;99501.34;;;9.48;100.00
59757;BME280;45631;51.962;5.974;2023-10-31T01:51:03;99505.66;;;9.49;100.00
59757;BME280;45631;51.962;5.974;2023-10-31T01:53:32;99503.72;;;9.51;100.00
59757;BME280;45631;51.962;5.974;2023-10-31T01:56:04;99505.50;;;9.51;100.00
59757;BME280;45631;51.962;5.974;2023-10-31T01:58:36;99510.63;;;9.52;100.00
59757;BME280;45631;51.962;5.974;2023-10-31T02:01:05;99509.81;;;9.52;100.00
59757;BME280;45631;51.962;5.974;2023-10-31T02:03:34;99510.63;;;9.52;100.00
59757;BME280;45631;51.962;5.974;2023-10-31T02:06:03;99516.69;;;9.53;100.00
59757;BME280;45631;51.962;5.974;2023-10-31T02:08:32;99512.31;;;9.53;100.00
59757;BME280;45631;51.962;5.974;2023-10-31T02:11:06;99514.81;;;9.55;100.00
59757;BME280;45631;51.962;5.974;2023-10-31T02:13:37;99515.63;;;9.55;100.00
59757;BME280;45631;51.962;5.974;2023-10-31T02:16:06;99520.50;;;9.60;100.00
59757;BME280;45631;51.962;5.974;2023-10-31T02:18:34;99512.75;;;9.58;100.00
59757;BME280;45631;51.962;5.974;2023-10-31T02:21:06;99518.00;;;9.58;100.00
59757;BME280;45631;51.962;5.974;2023-10-31T02:23:35;99519.53;;;9.61;100.00
59757;BME280;45631;51.962;5.974;2023-10-31T02:26:03;99524.44;;;9.66;100.00
59757;BME280;45631;51.962;5.974;2023-10-31T02:28:32;99519.53;;;9.61;100.00
59757;BME280;45631;51.962;5.974;2023-10-31T02:31:00;99523.00;;;9.61;100.00
59757;BME280;45631;51.962;5.974;2023-10-31T02:33:28;99516.78;;;9.62;100.00
59757;BME280;45631;51.962;5.974;2023-10-31T02:35:57;99519.53;;;9.61;100.00
59757;BME280;45631;51.962;5.974;2023-10-31T02:38:27;99516.22;;;9.59;100.00
59757;BME280;45631;51.962;5.974;2023-10-31T02:40:59;99516.34;;;9.57;100.00
59757;BME280;45631;51.962;5.974;2023-10-31T02:43:27;99518.00;;;9.58;100.00
59757;BME280;45631;51.962;5.974;2023-10-31T02:45:55;99523.38;;;9.57;100.00
59757;BME280;45631;51.962;5.974;2023-10-31T02:48:23;99525.63;;;9.61;100.00
59757;BME280;45631;51.962;5.974;2023-10-31T02:50:52;99528.13;;;9.63;100.00
59757;BME280;45631;51.962;5.974;2023-10-31T02:53:20;99522.28;;;9.59;100.00
59757;BME280;45631;51.962;5.974;2023-10-31T02:55:48;99518.72;;;9.60;100.00
59757;BME280;45631;51.962;5.974;2023-10-31T02:58:19;99526.59;;;9.60;100.00
59757;BME280;45631;51.962;5.974;2023-10-31T03:00:47;99520.13;;;9.64;100.00
59757;BME280;45631;51.962;5.974;2023-10-31T03:03:16;99516.53;;;9.66;100.00
59757;BME280;45631;51.962;5.974;2023-10-31T03:05:44;99519.41;;;9.62;100.00
59757;BME280;45631;51.962;5.974;2023-10-31T03:08:12;99518.44;;;9.63;100.00
59757;BME280;45631;51.962;5.974;2023-10-31T03:10:41;99517.63;;;9.63;100.00
59757;BME280;45631;51.962;5.974;2023-10-31T03:13:09;99518.44;;;9.63;100.00
59757;BME280;45631;51.962;5.974;2023-10-31T03:15:39;99516.91;;;9.61;100.00
59757;BME280;45631;51.962;5.974;2023-10-31T03:18:07;99518.59;;;9.62;100.00
59757;BME280;45631;51.962;5.974;2023-10-31T03:20:35;99522.03;;;9.62;100.00
59757;BME280;45631;51.962;5.974;2023-10-31T03:23:03;99524.56;;;9.64;100.00
59757;BME280;45631;51.962;5.974;2023-10-31T03:25:34;99518.84;;;9.59;100.00
59757;BME280;45631;51.962;5.974;2023-10-31T03:28:02;99533.75;;;9.58;100.00
59757;BME280;45631;51.962;5.974;2023-10-31T03:30:31;99526.59;;;9.60;100.00
59757;BME280;45631;51.962;5.974;2023-10-31T03:33:01;99526.84;;;9.57;100.00
59757;BME280;45631;51.962;5.974;2023-10-31T03:35:29;99532.91;;;9.58;100.00
59757;BME280;45631;51.962;5.974;2023-10-31T03:37:57;99543.28;;;9.59;100.00
59757;BME280;45631;51.962;5.974;2023-10-31T03:40:26;99541.59;;;9.58;100.00
59757;BME280;45631;51.962;5.974;2023-10-31T03:42:54;99544.00;;;9.61;100.00
59757;BME280;45631;51.962;5.974;2023-10-31T03:45:22;99550.22;;;9.60;100.00
59757;BME280;45631;51.962;5.974;2023-10-31T03:47:50;99546.75;;;9.60;100.00
59757;BME280;45631;51.962;5.974;2023-10-31T03:50:19;99549.38;;;9.60;100.00
59757;BME280;45631;51.962;5.974;2023-10-31T03:52:47;99548.66;;;9.58;100.00
59757;BME280;45631;51.962;5.974;2023-10-31T03:55:15;99559.88;;;9.60;100.00
59757;BME280;45631;51.962;5.974;2023-10-31T03:57:43;99566.78;;;9.61;100.00
59757;BME280;45631;51.962;5.974;2023-10-31T04:00:12;99568.59;;;9.60;100.00
59757;BME280;45631;51.962;5.974;2023-10-31T04:02:41;99574.53;;;9.62;100.00
59757;BME280;45631;51.962;5.974;2023-10-31T04:05:09;99570.94;;;9.63;100.00
59757;BME280;45631;51.962;5.974;2023-10-31T04:07:39;99585.63;;;9.66;100.00
59757;BME280;45631;51.962;5.974;2023-10-31T04:10:07;99583.94;;;9.65;100.00
59757;BME280;45631;51.962;5.974;2023-10-31T04:12:36;99586.00;;;9.61;100.00
59757;BME280;45631;51.962;5.974;2023-10-31T04:15:05;99588.38;;;9.64;100.00
59757;BME280;45631;51.962;5.974;2023-10-31T04:17:33;99594.84;;;9.60;100.00
59757;BME280;45631;51.962;5.974;2023-10-31T04:20:04;99597.84;;;9.56;100.00
59757;BME280;45631;51.962;5.974;2023-10-31T04:22:33;99597.94;;;9.54;100.00
59757;BME280;45631;51.962;5.974;2023-10-31T04:25:03;99611.19;;;9.53;100.00
59757;BME280;45631;51.962;5.974;2023-10-31T04:27:31;99605.00;;;9.54;100.00
59757;BME280;45631;51.962;5.974;2023-10-31T04:30:02;99614.78;;;9.52;100.00
59757;BME280;45631;51.962;5.974;2023-10-31T04:32:31;99614.19;;;9.48;100.00
59757;BME280;45631;51.962;5.974;2023-10-31T04:34:59;99619.69;;;9.45;100.00
59757;BME280;45631;51.962;5.974;2023-10-31T04:37:27;99622.88;;;9.48;100.00
59757;BME280;45631;51.962;5.974;2023-10-31T04:39:58;99623.97;;;9.46;100.00
59757;BME280;45631;51.962;5.974;2023-10-31T04:42:28;99634.47;;;9.46;100.00
59757;BME280;45631;51.962;5.974;2023-10-31T04:44:57;99638.16;;;9.43;100.00
59757;BME280;45631;51.962;5.974;2023-10-31T04:47:26;99640.09;;;9.41;100.00
59757;BME280;45631;51.962;5.974;2023-10-31T04:49:54;99645.34;;;9.41;100.00
59757;BME280;45631;51.962;5.974;2023-10-31T04:52:22;99655.84;;;9.41;100.00
59757;BME280;45631;51.962;5.974;2023-10-31T04:54:57;99655.00;;;9.41;100.00
59757;BME280;45631;51.962;5.974;2023-10-31T04:57:25;99649.75;;;9.41;100.00
59757;BME280;45631;51.962;5.974;2023-10-31T04:59:55;99659.16;;;9.43;100.00
59757;BME280;45631;51.962;5.974;2023-10-31T05:02:25;99664.41;;;9.43;100.00
59757;BME280;45631;51.962;5.974;2023-10-31T05:04:53;99670.50;;;9.44;100.00
59757;BME280;45631;51.962;5.974;2023-10-31T05:07:21;99674.81;;;9.45;100.00
59757;BME280;45631;51.962;5.974;2023-10-31T05:09:49;99673.25;;;9.42;100.00
59757;BME280;45631;51.962;5.974;2023-10-31T05:12:18;99679.31;;;9.43;100.00
59757;BME280;45631;51.962;5.974;2023-10-31T05:14:46;99682.78;;;9.43;100.00
59757;BME280;45631;51.962;5.974;2023-10-31T05:17:15;99685.41;;;9.43;100.00
59757;BME280;45631;51.962;5.974;2023-10-31T05:19:43;99687.06;;;9.44;100.00
59757;BME280;45631;51.962;5.974;2023-10-31T05:22:12;99684.31;;;9.46;100.00
59757;BME280;45631;51.962;5.974;2023-10-31T05:24:40;99689.56;;;9.46;100.00
59757;BME280;45631;51.962;5.974;2023-10-31T05:27:08;99688.63;;;9.47;100.00
59757;BME280;45631;51.962;5.974;2023-10-31T05:29:38;99690.31;;;9.48;100.00
59757;BME280;45631;51.962;5.974;2023-10-31T05:32:06;99687.94;;;9.45;100.00
59757;BME280;45631;51.962;5.974;2023-10-31T05:34:36;99687.94;;;9.45;100.00
59757;BME280;45631;51.962;5.974;2023-10-31T05:37:04;99693.06;;;9.46;100.00
59757;BME280;45631;51.962;5.974;2023-10-31T05:39:33;99697.69;;;9.43;100.00
59757;BME280;45631;51.962;5.974;2023-10-31T05:42:04;99704.75;;;9.42;100.00
59757;BME280;45631;51.962;5.974;2023-10-31T05:44:32;99706.41;;;9.43;100.00
59757;BME280;45631;51.962;5.974;2023-10-31T05:47:00;99707.50;;;9.41;100.00
59757;BME280;45631;51.962;5.974;2023-10-31T05:49:29;99711.88;;;9.40;100.00
59757;BME280;45631;51.962;5.974;2023-10-31T05:51:58;99712.84;;;9.39;100.00
59757;BME280;45631;51.962;5.974;2023-10-31T05:54:26;99721.91;;;9.35;100.00
59757;BME280;45631;51.962;5.974;2023-10-31T05:56:55;99722.75;;;9.36;100.00
59757;BME280;45631;51.962;5.974;2023-10-31T05:59:23;99725.25;;;9.37;100.00
59757;BME280;45631;51.962;5.974;2023-10-31T06:01:52;99725.63;;;9.33;100.00
59757;BME280;45631;51.962;5.974;2023-10-31T06:04:20;99728.34;;;9.31;100.00
59757;BME280;45631;51.962;5.974;2023-10-31T06:06:49;99725.63;;;9.33;100.00
59757;BME280;45631;51.962;5.974;2023-10-31T06:09:19;99731.81;;;9.32;100.00
59757;BME280;45631;51.962;5.974;2023-10-31T06:11:47;99740.03;;;9.27;100.00
59757;BME280;45631;51.962;5.974;2023-10-31T06:14:15;99751.50;;;9.26;100.00
59757;BME280;45631;51.962;5.974;2023-10-31T06:16:44;99756.88;;;9.24;100.00
59757;BME280;45631;51.962;5.974;2023-10-31T06:19:12;99759.72;;;9.21;100.00
59757;BME280;45631;51.962;5.974;2023-10-31T06:21:43;99764.25;;;9.19;100.00
59757;BME280;45631;51.962;5.974;2023-10-31T06:24:13;99762.47;;;9.20;100.00
59757;BME280;45631;51.962;5.974;2023-10-31T06:26:43;99766.38;;;9.14;100.00
59757;BME280;45631;51.962;5.974;2023-10-31T06:29:11;99763.63;;;9.16;100.00
59757;BME280;45631;51.962;5.974;2023-10-31T06:31:59;99770.19;;;9.10;100.00
59757;BME280;45631;51.962;5.974;2023-10-31T06:34:28;99774.13;;;9.04;100.00
59757;BME280;45631;51.962;5.974;2023-10-31T06:36:56;99775.19;;;9.02;100.00
59757;BME280;45631;51.962;5.974;2023-10-31T06:39:24;99777.06;;;9.00;100.00
59757;BME280;45631;51.962;5.974;2023-10-31T06:41:55;99787.56;;;9.00;100.00
59757;BME280;45631;51.962;5.974;2023-10-31T06:44:23;99783.28;;;8.99;100.00
59757;BME280;45631;51.962;5.974;2023-10-31T06:46:52;99789.38;;;8.99;100.00
59757;BME280;45631;51.962;5.974;2023-10-31T06:49:20;99791.88;;;9.01;100.00
59757;BME280;45631;51.962;5.974;2023-10-31T06:51:50;99795.22;;;9.03;100.00
59757;BME280;45631;51.962;5.974;2023-10-31T06:54:18;99785.69;;;9.02;100.00
59757;BME280;45631;51.962;5.974;2023-10-31T06:56:48;99786.50;;;9.02;100.00
59757;BME280;45631;51.962;5.974;2023-10-31T06:59:17;99789.00;;;9.04;100.00
59757;BME280;45631;51.962;5.974;2023-10-31T07:01:45;99790.44;;;9.08;100.00
59757;BME280;45631;51.962;5.974;2023-10-31T07:04:14;99785.00;;;9.11;100.00
59757;BME280;45631;51.962;5.974;2023-10-31T07:06:43;99785.00;;;9.11;100.00
59757;BME280;45631;51.962;5.974;2023-10-31T07:09:11;99787.50;;;9.12;100.00
59757;BME280;45631;51.962;5.974;2023-10-31T07:11:40;99803.81;;;9.16;100.00
59757;BME280;45631;51.962;5.974;2023-10-31T07:14:08;99797.28;;;9.22;100.00
59757;BME280;45631;51.962;5.974;2023-10-31T07:16:38;99800.84;;;9.21;100.00
59757;BME280;45631;51.962;5.974;2023-10-31T07:19:06;99801.69;;;9.21;100.00
59757;BME280;45631;51.962;5.974;2023-10-31T07:21:34;99801.47;;;9.24;100.00
59757;BME280;45631;51.962;5.974;2023-10-31T07:24:04;99806.72;;;9.24;100.00
59757;BME280;45631;51.962;5.974;2023-10-31T07:26:32;99809.59;;;9.33;100.00
59757;BME280;45631;51.962;5.974;2023-10-31T07:29:00;99809.84;;;9.41;100.00
59757;BME280;45631;51.962;5.974;2023-10-31T07:31:28;99811.41;;;9.55;100.00
59757;BME280;45631;51.962;5.974;2023-10-31T07:33:58;99813.78;;;9.69;100.00
59757;BME280;45631;51.962;5.974;2023-10-31T07:36:26;99815.56;;;9.69;100.00
59757;BME280;45631;51.962;5.974;2023-10-31T07:38:54;99817.63;;;9.76;100.00
59757;BME280;45631;51.962;5.974;2023-10-31T07:41:22;99819.84;;;9.92;100.00
59757;BME280;45631;51.962;5.974;2023-10-31T07:43:52;99821.41;;;10.06;100.00
59757;BME280;45631;51.962;5.974;2023-10-31T07:46:20;99821.09;;;10.32;100.00
59757;BME280;45631;51.962;5.974;2023-10-31T07:48:49;99821.25;;;10.42;100.00
59757;BME280;45631;51.962;5.974;2023-10-31T07:51:19;99825.97;;;10.59;100.00
59757;BME280;45631;51.962;5.974;2023-10-31T07:53:47;99826.75;;;10.71;100.00
59757;BME280;45631;51.962;5.974;2023-10-31T07:56:15;99833.44;;;10.75;100.00
59757;BME280;45631;51.962;5.974;2023-10-31T07:58:44;99824.78;;;10.85;100.00
59757;BME280;45631;51.962;5.974;2023-10-31T08:01:12;99831.25;;;10.80;100.00
59757;BME280;45631;51.962;5.974;2023-10-31T08:03:40;99838.28;;;10.91;100.00
59757;BME280;45631;51.962;5.974;2023-10-31T08:06:10;99838.94;;;10.72;100.00
59757;BME280;45631;51.962;5.974;2023-10-31T08:08:40;99842.41;;;10.73;100.00
59757;BME280;45631;51.962;5.974;2023-10-31T08:11:08;99845.28;;;10.70;100.00
59757;BME280;45631;51.962;5.974;2023-10-31T08:13:37;99850.59;;;10.58;100.00
59757;BME280;45631;51.962;5.974;2023-10-31T08:16:06;99854.78;;;10.61;100.00
59757;BME280;45631;51.962;5.974;2023-10-31T08:18:35;99850.81;;;10.67;100.00
59757;BME280;45631;51.962;5.974;2023-10-31T08:21:04;99848.53;;;10.73;100.00
59757;BME280;45631;51.962;5.974;2023-10-31T08:23:32;99848.66;;;10.93;100.00
59757;BME280;45631;51.962;5.974;2023-10-31T08:26:03;99849.47;;;11.05;100.00
59757;BME280;45631;51.962;5.974;2023-10-31T08:28:32;99852.78;;;11.07;100.00
59757;BME280;45631;51.962;5.974;2023-10-31T08:31:00;99860.84;;;11.26;100.00
59757;BME280;45631;51.962;5.974;2023-10-31T08:33:30;99861.22;;;11.43;100.00
59757;BME280;45631;51.962;5.974;2023-10-31T08:35:59;99863.25;;;11.60;100.00
59757;BME280;45631;51.962;5.974;2023-10-31T08:38:29;99858.84;;;11.71;100.00
59757;BME280;45631;51.962;5.974;2023-10-31T08:41:01;99867.25;;;11.86;100.00
59757;BME280;45631;51.962;5.974;2023-10-31T08:43:32;99869.50;;;11.90;100.00
59757;BME280;45631;51.962;5.974;2023-10-31T08:46:00;99870.00;;;11.84;100.00
59757;BME280;45631;51.962;5.974;2023-10-31T08:48:28;99872.75;;;11.73;100.00
59757;BME280;45631;51.962;5.974;2023-10-31T08:50:56;99880.19;;;11.67;100.00
59757;BME280;45631;51.962;5.974;2023-10-31T08:53:24;99877.69;;;11.66;100.00
59757;BME280;45631;51.962;5.974;2023-10-31T08:55:52;99879.91;;;11.71;100.00
59757;BME280;45631;51.962;5.974;2023-10-31T08:58:21;99880.97;;;11.79;100.00
59757;BME280;45631;51.962;5.974;2023-10-31T09:00:50;99884.41;;;11.80;100.00
59757;BME280;45631;51.962;5.974;2023-10-31T09:03:20;99891.03;;;11.74;100.00
59757;BME280;45631;51.962;5.974;2023-10-31T09:05:49;99891.72;;;11.76;100.00
59757;BME280;45631;51.962;5.974;2023-10-31T09:08:17;99900.72;;;11.74;100.00
59757;BME280;45631;51.962;5.974;2023-10-31T09:10:45;99901.72;;;11.73;100.00
59757;BME280;45631;51.962;5.974;2023-10-31T09:13:17;99904.94;;;11.86;100.00
59757;BME280;45631;51.962;5.974;2023-10-31T09:15:46;99908.56;;;12.16;100.00
59757;BME280;45631;51.962;5.974;2023-10-31T09:18:18;99914.56;;;12.18;100.00
59757;BME280;45631;51.962;5.974;2023-10-31T09:20:46;99919.53;;;12.11;100.00
59757;BME280;45631;51.962;5.974;2023-10-31T09:23:14;99919.97;;;12.16;100.00
59757;BME280;45631;51.962;5.974;2023-10-31T09:25:44;99918.34;;;12.35;100.00
59757;BME280;45631;51.962;5.974;2023-10-31T09:28:12;99922.69;;;12.46;100.00
59757;BME280;45631;51.962;5.974;2023-10-31T09:30:40;99930.91;;;12.62;100.00
59757;BME280;45631;51.962;5.974;2023-10-31T09:33:11;99931.81;;;12.92;100.00
59757;BME280;45631;51.962;5.974;2023-10-31T09:35:41;99937.94;;;13.22;100.00
59757;BME280;45631;51.962;5.974;2023-10-31T09:38:10;99944.09;;;13.42;100.00
59757;BME280;45631;51.962;5.974;2023-10-31T09:40:38;99945.19;;;13.40;100.00
59757;BME280;45631;51.962;5.974;2023-10-31T09:43:06;99945.03;;;13.31;100.00
59757;BME280;45631;51.962;5.974;2023-10-31T09:45:35;99954.50;;;13.24;100.00
59757;BME280;45631;51.962;5.974;2023-10-31T09:48:03;99957.00;;;13.55;100.00
59757;BME280;45631;51.962;5.974;2023-10-31T09:50:33;99957.81;;;13.65;100.00
59757;BME280;45631;51.962;5.974;2023-10-31T09:53:04;99963.22;;;13.74;100.00
59757;BME280;45631;51.962;5.974;2023-10-31T09:55:34;99961.69;;;13.81;100.00
59757;BME280;45631;51.962;5.974;2023-10-31T09:58:02;99986.69;;;14.06;100.00
59757;BME280;45631;51.962;5.974;2023-10-31T10:00:31;99976.63;;;14.19;100.00
59757;BME280;45631;51.962;5.974;2023-10-31T10:02:59;99981.31;;;14.26;100.00
59757;BME280;45631;51.962;5.974;2023-10-31T10:05:31;99987.72;;;14.23;100.00
59757;BME280;45631;51.962;5.974;2023-10-31T10:07:59;99995.22;;;14.65;100.00
59757;BME280;45631;51.962;5.974;2023-10-31T10:10:29;99990.66;;;14.58;100.00
59757;BME280;45631;51.962;5.974;2023-10-31T10:12:58;100001.50;;;14.54;100.00
59757;BME280;45631;51.962;5.974;2023-10-31T10:15:29;100006.84;;;14.82;100.00
59757;BME280;45631;51.962;5.974;2023-10-31T10:17:58;100008.72;;;15.00;100.00
59757;BME280;45631;51.962;5.974;2023-10-31T10:20:27;100024.38;;;15.11;100.00
59757;BME280;45631;51.962;5.974;2023-10-31T10:23:03;100015.88;;;14.90;100.00
59757;BME280;45631;51.962;5.974;2023-10-31T10:25:33;100023.03;;;14.79;100.00
59757;BME280;45631;51.962;5.974;2023-10-31T10:28:09;100027.09;;;14.74;100.00
59757;BME280;45631;51.962;5.974;2023-10-31T10:30:39;100021.66;;;15.03;100.00
59757;BME280;45631;51.962;5.974;2023-10-31T10:33:08;100025.69;;;15.25;100.00
59757;BME280;45631;51.962;5.974;2023-10-31T10:35:36;100018.69;;;15.78;100.00
59757;BME280;45631;51.962;5.974;2023-10-31T10:38:08;100022.19;;;16.23;100.00
59757;BME280;45631;51.962;5.974;2023-10-31T10:40:40;100022.22;;;16.31;100.00
59757;BME280;45631;51.962;5.974;2023-10-31T10:43:12;100031.19;;;16.04;100.00
59757;BME280;45631;51.962;5.974;2023-10-31T10:45:42;100024.56;;;15.64;100.00
59757;BME280;45631;51.962;5.974;2023-10-31T10:48:13;100030.91;;;15.35;100.00
59757;BME280;45631;51.962;5.974;2023-10-31T10:50:45;100032.78;;;15.07;100.00
59757;BME280;45631;51.962;5.974;2023-10-31T10:53:22;100034.56;;;14.88;100.00
59757;BME280;45631;51.962;5.974;2023-10-31T10:56:00;100034.25;;;14.91;100.00
59757;BME280;45631;51.962;5.974;2023-10-31T10:58:34;100035.63;;;14.95;100.00
59757;BME280;45631;51.962;5.974;2023-10-31T11:01:07;100035.03;;;15.01;100.00
59757;BME280;45631;51.962;5.974;2023-10-31T11:03:36;100035.91;;;14.92;100.00
59757;BME280;45631;51.962;5.974;2023-10-31T11:06:05;100042.22;;;15.09;100.00
59757;BME280;45631;51.962;5.974;2023-10-31T11:08:34;100042.00;;;15.02;100.00
59757;BME280;45631;51.962;5.974;2023-10-31T11:11:05;100042.38;;;15.08;100.00
59757;BME280;45631;51.962;5.974;2023-10-31T11:13:34;100046.50;;;15.38;100.00
59757;BME280;45631;51.962;5.974;2023-10-31T11:16:07;100047.41;;;15.47;100.00
59757;BME280;45631;51.962;5.974;2023-10-31T11:18:37;100042.56;;;15.60;100.00
59757;BME280;45631;51.962;5.974;2023-10-31T11:21:07;100047.03;;;15.42;100.00
59757;BME280;45631;51.962;5.974;2023-10-31T11:23:36;100052.47;;;15.22;100.00
59757;BME280;45631;51.962;5.974;2023-10-31T11:26:06;100043.94;;;15.00;100.00
59757;BME280;45631;51.962;5.974;2023-10-31T11:28:35;100048.44;;;14.90;100.00
59757;BME280;45631;51.962;5.974;2023-10-31T11:31:04;100047.88;;;14.96;100.00
59757;BME280;45631;51.962;5.974;2023-10-31T11:33:39;100048.25;;;14.83;100.00
59757;BME280;45631;51.962;5.974;2023-10-31T11:36:10;100056.44;;;14.80;100.00
59757;BME280;45631;51.962;5.974;2023-10-31T11:38:38;100057.97;;;14.83;100.00
59757;BME280;45631;51.962;5.974;2023-10-31T11:41:08;100064.63;;;14.87;100.00
59757;BME280;45631;51.962;5.974;2023-10-31T11:43:54;100060.66;;;14.73;100.00
59757;BME280;45631;51.962;5.974;2023-10-31T11:46:24;100074.81;;;14.82;100.00
59757;BME280;45631;51.962;5.974;2023-10-31T11:48:54;100069.25;;;14.85;100.00
59757;BME280;45631;51.962;5.974;2023-10-31T11:51:24;100074.59;;;15.03;100.00
59757;BME280;45631;51.962;5.974;2023-10-31T11:53:52;100079.09;;;14.93;100.00
59757;BME280;45631;51.962;5.974;2023-10-31T11:56:22;100085.25;;;14.93;100.00
59757;BME280;45631;51.962;5.974;2023-10-31T11:58:58;100083.06;;;14.79;100.00
59757;BME280;45631;51.962;5.974;2023-10-31T12:01:26;100091.91;;;14.97;100.00
59757;BME280;45631;51.962;5.974;2023-10-31T12:03:55;100094.00;;;14.94;100.00
59757;BME280;45631;51.962;5.974;2023-10-31T12:06:23;100096.25;;;14.98;100.00
59757;BME280;45631;51.962;5.974;2023-10-31T12:08:52;100102.97;;;14.83;100.00
59757;BME280;45631;51.962;5.974;2023-10-31T12:11:23;100099.81;;;14.79;100.00
59757;BME280;45631;51.962;5.974;2023-10-31T12:13:53;100103.28;;;14.80;100.00
59757;BME280;45631;51.962;5.974;2023-10-31T12:16:27;100099.81;;;14.79;100.00
59757;BME280;45631;51.962;5.974;2023-10-31T12:18:57;100097.28;;;14.78;100.00
59757;BME280;45631;51.962;5.974;2023-10-31T12:21:38;100094.94;;;14.75;100.00
59757;BME280;45631;51.962;5.974;2023-10-31T12:24:10;100099.53;;;14.73;100.00
59757;BME280;45631;51.962;5.974;2023-10-31T12:26:43;100096.19;;;14.70;100.00
59757;BME280;45631;51.962;5.974;2023-10-31T12:29:13;100109.59;;;14.59;100.00
59757;BME280;45631;51.962;5.974;2023-10-31T12:31:46;100097.75;;;14.53;100.00
59757;BME280;45631;51.962;5.974;2023-10-31T12:34:16;100097.06;;;14.51;100.00
59757;BME280;45631;51.962;5.974;2023-10-31T12:36:46;100101.16;;;14.36;100.00
59757;BME280;45631;51.962;5.974;2023-10-31T12:39:15;100100.88;;;14.29;100.00
59757;BME280;45631;51.962;5.974;2023-10-31T12:41:47;100104.63;;;14.27;100.00
59757;BME280;45631;51.962;5.974;2023-10-31T12:44:20;100102.69;;;14.39;100.00
59757;BME280;45631;51.962;5.974;2023-10-31T12:46:50;100105.19;;;14.30;100.00
59757;BME280;45631;51.962;5.974;2023-10-31T12:49:20;100101.16;;;14.16;100.00
59757;BME280;45631;51.962;5.974;2023-10-31T12:52:06;100104.63;;;14.27;100.00
59757;BME280;45631;51.962;5.974;2023-10-31T12:54:35;100109.22;;;14.34;100.00
59757;BME280;45631;51.962;5.974;2023-10-31T12:57:07;100112.03;;;14.33;100.00
59757;BME280;45631;51.962;5.974;2023-10-31T12:59:37;100118.81;;;14.35;100.00
59757;BME280;45631;51.962;5.974;2023-10-31T13:02:06;100115.03;;;14.38;100.00
59757;BME280;45631;51.962;5.974;2023-10-31T13:04:35;100121.91;;;14.21;100.00